createdAt,value
2022-11-12T05:15:58.424Z,101772.41
2022-11-12T05:18:43.950Z,101774.94
2022-11-12T05:21:48.598Z,101779.50
2022-11-12T05:24:42.412Z,101776.84
2022-11-12T05:27:28.010Z,101778.53
2022-11-12T05:30:13.871Z,101779.91
2022-11-12T05:32:58.900Z,101776.69
2022-11-12T05:35:43.935Z,101778.16
2022-11-12T05:38:29.277Z,101773.97
2022-11-12T05:41:19.807Z,101772.34
2022-11-12T05:44:05.765Z,101770.53
2022-11-12T05:46:50.971Z,101770.47
2022-11-12T05:49:36.214Z,101773.13
2022-11-12T05:52:21.684Z,101774.88
2022-11-12T05:55:12.287Z,101777.31
2022-11-12T05:57:57.461Z,101771.25
2022-11-12T06:00:42.778Z,101781.88
2022-11-12T06:03:28.266Z,101781.84
2022-11-12T06:06:13.321Z,101788.84
2022-11-12T06:08:58.516Z,101795.91
2022-11-12T06:11:43.492Z,101787.09
2022-11-12T06:14:28.588Z,101788.84
2022-11-12T06:17:13.578Z,101793.22
2022-11-12T06:20:02.687Z,101791.50
2022-11-12T06:22:48.324Z,101795.44
2022-11-12T06:25:34.102Z,101792.31
2022-11-12T06:28:19.343Z,101801.81
2022-11-12T06:31:05.091Z,101804.44
2022-11-12T06:33:50.807Z,101797.56
2022-11-12T06:36:36.263Z,101805.41
2022-11-12T06:39:21.421Z,101806.84
2022-11-12T06:42:06.856Z,101799.16
2022-11-12T06:44:52.046Z,101802.72
2022-11-12T06:47:37.555Z,101806.34
2022-11-12T06:50:22.773Z,101798.44
2022-11-12T06:53:07.747Z,101801.34
2022-11-12T06:55:53.205Z,101810.09
2022-11-12T06:59:04.465Z,101798.03
2022-11-12T07:01:53.889Z,101801.31
2022-11-12T07:04:39.422Z,101805.84
2022-11-12T07:07:25.402Z,101804.09
2022-11-12T07:10:15.467Z,101804.06
2022-11-12T07:13:00.823Z,101806.69
2022-11-12T07:15:46.096Z,101803.13
2022-11-12T07:18:32.069Z,101802.97
2022-11-12T07:21:19.865Z,101811.91
2022-11-12T07:24:05.408Z,101816.41
2022-11-12T07:26:50.519Z,101818.16
2022-11-12T07:29:47.516Z,101819.09
2022-11-12T07:32:36.277Z,101824.22
2022-11-12T07:35:25.348Z,101822.81
2022-11-12T07:38:10.669Z,101814.09
2022-11-12T07:41:07.465Z,101809.13
2022-11-12T07:43:53.940Z,101816.16
2022-11-12T07:46:40.075Z,101820.47
2022-11-12T07:49:27.502Z,101813.56
2022-11-12T07:52:12.641Z,101819.75
2022-11-12T07:54:57.765Z,101811.88
2022-11-12T07:57:43.007Z,101805.91
2022-11-12T08:00:30.901Z,101796.31
2022-11-12T08:03:45.730Z,101788.88
2022-11-12T08:06:31.550Z,101801.13
2022-11-12T08:09:16.796Z,101791.66
2022-11-12T08:12:09.594Z,101807.34
2022-11-12T08:14:54.945Z,101802.00
2022-11-12T08:17:40.225Z,101809.16
2022-11-12T08:20:27.691Z,101802.16
2022-11-12T08:23:12.501Z,101801.47
2022-11-12T08:26:05.174Z,101792.88
2022-11-12T08:28:52.583Z,101809.41
2022-11-12T08:31:40.082Z,101805.94
2022-11-12T08:34:25.697Z,101802.72
2022-11-12T08:37:10.790Z,101806.19
2022-11-12T08:39:56.025Z,101811.56
2022-11-12T08:42:41.283Z,101806.38
2022-11-12T08:45:27.719Z,101821.22
2022-11-12T08:48:14.892Z,101806.38
2022-11-12T08:51:06.672Z,101814.03
2022-11-12T08:53:51.948Z,101814.25
2022-11-12T08:56:38.468Z,101809.75
2022-11-12T08:59:23.752Z,101813.41
2022-11-12T09:02:13.873Z,101816.09
2022-11-12T09:04:58.903Z,101810.88
2022-11-12T09:07:49.785Z,101818.81
2022-11-12T09:10:37.150Z,101817.84
2022-11-12T09:13:22.465Z,101820.53
2022-11-12T09:16:09.521Z,101813.59
2022-11-12T09:18:55.147Z,101809.91
2022-11-12T09:21:40.408Z,101804.81
2022-11-12T09:24:25.468Z,101812.75
2022-11-12T09:27:10.655Z,101812.84
2022-11-12T09:29:55.912Z,101807.69
2022-11-12T09:32:41.434Z,101809.53
2022-11-12T09:35:30.170Z,101805.03
2022-11-12T09:38:15.745Z,101811.22
2022-11-12T09:41:22.387Z,101808.50
2022-11-12T09:44:14.385Z,101808.19
2022-11-12T09:47:04.801Z,101809.19
2022-11-12T09:49:59.861Z,101803.06
2022-11-12T09:52:47.594Z,101811.72
2022-11-12T09:55:42.757Z,101814.25
2022-11-12T09:58:28.486Z,101827.34
2022-11-12T10:01:55.843Z,101818.81
2022-11-12T10:05:15.161Z,101822.28
2022-11-12T10:08:26.671Z,101815.44
2022-11-12T10:11:27.258Z,101811.97
2022-11-12T10:14:27.859Z,101805.13
2022-11-12T10:17:37.150Z,101807.81
2022-11-12T10:20:42.053Z,101803.44
2022-11-12T10:23:41.833Z,101791.38
2022-11-12T10:26:28.548Z,101788.81
2022-11-12T10:29:57.544Z,101781.97
2022-11-12T10:32:45.808Z,101777.41
2022-11-12T10:35:31.061Z,101781.84
2022-11-12T10:38:22.940Z,101777.50
2022-11-12T10:41:30.809Z,101781.91
2022-11-12T10:44:26.171Z,101779.34
2022-11-12T10:47:32.323Z,101782.00
2022-11-12T10:50:31.746Z,101787.25
2022-11-12T10:53:31.637Z,101788.88
2022-11-12T10:56:31.777Z,101785.53
2022-11-12T10:59:20.955Z,101784.63
2022-11-12T11:02:19.013Z,101782.91
2022-11-12T11:05:31.090Z,101784.75
2022-11-12T11:08:36.298Z,101780.34
2022-11-12T11:11:27.641Z,101779.50
2022-11-12T11:14:29.735Z,101773.47
2022-11-12T11:17:18.929Z,101765.63
2022-11-12T11:20:19.560Z,101773.53
2022-11-12T11:23:20.303Z,101766.47
2022-11-12T11:26:46.423Z,101757.81
2022-11-12T11:29:56.659Z,101762.09
2022-11-12T11:32:55.351Z,101760.50
2022-11-12T11:35:47.552Z,101749.16
2022-11-12T11:38:39.096Z,101753.53
2022-11-12T11:41:33.133Z,101750.09
2022-11-12T11:44:51.651Z,101740.50
2022-11-12T11:48:02.277Z,101744.91
2022-11-12T11:50:59.865Z,101739.66
2022-11-12T11:54:03.959Z,101731.88
2022-11-12T11:56:51.858Z,101728.16
2022-11-12T12:00:07.086Z,101732.59
2022-11-12T12:03:17.522Z,101730.03
2022-11-12T12:06:46.675Z,101734.31
2022-11-12T12:09:40.083Z,101723.94
2022-11-12T12:12:43.546Z,101717.84
2022-11-12T12:16:10.869Z,101722.16
2022-11-12T12:19:13.658Z,101722.13
2022-11-12T12:22:07.772Z,101716.06
2022-11-12T12:24:59.057Z,101715.09
2022-11-12T12:27:53.848Z,101710.78
2022-11-12T12:30:44.814Z,101704.66
2022-11-12T12:33:37.590Z,101707.34
2022-11-12T12:36:38.158Z,101700.38
2022-11-12T12:39:35.925Z,101698.63
2022-11-12T12:42:38.201Z,101706.50
2022-11-12T12:45:52.964Z,101700.44
2022-11-12T12:48:42.261Z,101698.75
2022-11-12T12:51:33.545Z,101685.63
2022-11-12T12:54:36.989Z,101686.47
2022-11-12T12:57:39.678Z,101685.59
2022-11-12T13:00:40.979Z,101684.75
2022-11-12T13:03:42.636Z,101680.41
2022-11-12T13:06:30.034Z,101679.56
2022-11-12T13:09:14.867Z,101673.44
2022-11-12T13:12:06.070Z,101666.47
2022-11-12T13:15:07.205Z,101669.09
2022-11-12T13:17:52.847Z,101663.88
2022-11-12T13:20:40.352Z,101660.41
2022-11-12T13:24:04.079Z,101659.53
2022-11-12T13:26:52.421Z,101661.31
2022-11-12T13:29:37.581Z,101656.94
2022-11-12T13:32:53.738Z,101664.81
2022-11-12T13:35:39.804Z,101659.53
2022-11-12T13:38:26.213Z,101648.16
2022-11-12T13:41:18.086Z,101649.06
2022-11-12T13:44:12.347Z,101645.53
2022-11-12T13:46:57.503Z,101635.91
2022-11-12T13:49:45.832Z,101642.06
2022-11-12T13:52:31.719Z,101643.78
2022-11-12T13:55:22.867Z,101644.66
2022-11-12T13:58:20.584Z,101637.66
2022-11-12T14:01:07.969Z,101638.50
2022-11-12T14:03:53.360Z,101632.41
2022-11-12T14:06:42.575Z,101628.91
2022-11-12T14:09:46.037Z,101628.88
2022-11-12T14:12:34.419Z,101626.28
2022-11-12T14:15:51.717Z,101615.78
2022-11-12T14:18:45.101Z,101617.53
2022-11-12T14:21:30.103Z,101615.78
2022-11-12T14:24:15.288Z,101618.41
2022-11-12T14:27:00.652Z,101609.63
2022-11-12T14:29:46.231Z,101616.66
2022-11-12T14:32:38.838Z,101608.78
2022-11-12T14:35:31.168Z,101600.88
2022-11-12T14:38:28.233Z,101597.41
2022-11-12T14:41:24.045Z,101607.88
2022-11-12T14:44:24.627Z,101608.78
2022-11-12T14:47:10.098Z,101611.41
2022-11-12T14:49:55.818Z,101612.25
2022-11-12T14:52:44.211Z,101613.13
2022-11-12T14:55:37.140Z,101605.25
2022-11-12T14:58:25.203Z,101602.63
2022-11-12T15:04:38.518Z,101614.81
2022-11-12T15:07:35.464Z,101606.91
2022-11-12T15:10:34.633Z,101610.41
2022-11-12T15:13:24.265Z,101612.13
2022-11-12T15:16:11.854Z,101609.50
2022-11-12T15:19:06.693Z,101597.28
2022-11-12T15:22:01.230Z,101599.00
2022-11-12T15:24:49.549Z,101601.56
2022-11-12T15:27:39.580Z,101592.81
2022-11-12T15:30:26.331Z,101595.38
2022-11-12T15:33:11.514Z,101593.56
2022-11-12T15:35:59.903Z,101597.00
2022-11-12T15:38:51.258Z,101599.63
2022-11-12T15:41:36.479Z,101597.88
2022-11-12T15:44:21.610Z,101584.78
2022-11-12T15:47:13.357Z,101585.63
2022-11-12T15:49:59.121Z,101576.91
2022-11-12T15:52:44.573Z,101580.38
2022-11-12T15:55:29.683Z,101576.84
2022-11-12T15:58:30.527Z,101570.72
2022-11-12T16:01:16.021Z,101574.16
2022-11-12T16:04:01.447Z,101564.50
2022-11-12T16:06:46.666Z,101563.63
2022-11-12T16:09:31.761Z,101560.13
2022-11-12T16:12:16.978Z,101556.63
2022-11-12T16:15:02.311Z,101554.88
2022-11-12T16:17:48.177Z,101554.00
2022-11-12T16:20:35.138Z,101549.66
2022-11-12T16:23:20.399Z,101549.66
2022-11-12T16:26:08.616Z,101543.53
2022-11-12T16:28:53.659Z,101551.34
2022-11-12T16:31:41.520Z,101539.06
2022-11-12T16:34:26.560Z,101543.44
2022-11-12T16:37:13.013Z,101544.34
2022-11-12T16:40:12.498Z,101545.22
2022-11-12T16:42:59.765Z,101539.94
2022-11-12T16:45:47.934Z,101539.91
2022-11-12T16:48:43.847Z,101541.66
2022-11-12T16:51:31.902Z,101537.34
2022-11-12T16:54:16.997Z,101546.00
2022-11-12T16:57:01.873Z,101540.75
2022-11-12T16:59:46.978Z,101552.03
2022-11-12T17:02:32.132Z,101551.13
2022-11-12T17:05:20.575Z,101552.94
2022-11-12T17:08:06.032Z,101546.78
2022-11-12T17:10:51.174Z,101555.59
2022-11-12T17:13:38.578Z,101552.94
2022-11-12T17:16:24.034Z,101543.38
2022-11-12T17:19:10.424Z,101539.88
2022-11-12T17:21:55.554Z,101531.91
2022-11-12T17:24:41.006Z,101531.97
2022-11-12T17:27:26.356Z,101531.91
2022-11-12T17:30:12.016Z,101533.56
2022-11-12T17:32:59.378Z,101530.91
2022-11-12T17:35:44.598Z,101535.19
2022-11-12T17:38:30.594Z,101538.59
2022-11-12T17:41:16.117Z,101540.41
2022-11-12T17:44:02.412Z,101533.41
2022-11-12T17:46:48.397Z,101530.81
2022-11-12T17:49:33.449Z,101539.56
2022-11-12T17:52:18.621Z,101533.41
2022-11-12T17:55:04.218Z,101528.25
2022-11-12T17:57:49.561Z,101530.84
2022-11-12T18:00:39.086Z,101539.53
2022-11-12T18:03:24.476Z,101539.63
2022-11-12T18:06:14.674Z,101537.00
2022-11-12T18:09:02.268Z,101530.84
2022-11-12T18:11:58.866Z,101540.50
2022-11-12T18:14:43.984Z,101541.41
2022-11-12T18:17:28.836Z,101542.34
2022-11-12T18:20:13.878Z,101536.25
2022-11-12T18:22:58.984Z,101538.88
2022-11-12T18:25:46.808Z,101527.44
2022-11-12T18:28:32.756Z,101531.81
2022-11-12T18:31:18.234Z,101525.59
2022-11-12T18:34:03.648Z,101528.31
2022-11-12T18:36:48.539Z,101516.91
2022-11-12T18:39:33.852Z,101521.31
2022-11-12T18:42:19.959Z,101522.09
2022-11-12T18:45:05.260Z,101518.63
2022-11-12T18:47:51.164Z,101514.22
2022-11-12T18:50:35.998Z,101512.47
2022-11-12T18:53:21.016Z,101504.50
2022-11-12T18:56:12.281Z,101494.03
2022-11-12T18:58:57.226Z,101484.50
2022-11-12T19:01:42.195Z,101481.84
2022-11-12T19:04:27.081Z,101491.47
2022-11-12T19:07:12.323Z,101485.38
2022-11-12T19:09:57.664Z,101485.28
2022-11-12T19:12:42.785Z,101473.94
2022-11-12T19:15:27.753Z,101479.09
2022-11-12T19:18:14.004Z,101486.09
2022-11-12T19:21:05.352Z,101478.38
2022-11-12T19:23:54.618Z,101479.97
2022-11-12T19:26:40.212Z,101478.22
2022-11-12T19:29:25.276Z,101478.28
2022-11-12T19:32:10.467Z,101480.00
2022-11-12T19:34:55.717Z,101482.53
2022-11-12T19:37:41.358Z,101484.34
2022-11-12T19:40:26.400Z,101477.34
2022-11-12T19:43:11.508Z,101484.34
2022-11-12T19:45:56.737Z,101474.72
2022-11-12T19:48:42.573Z,101479.94
2022-11-12T19:51:34.754Z,101474.53
2022-11-12T19:54:20.259Z,101468.25
2022-11-12T19:57:05.813Z,101467.34
2022-11-12T19:59:50.855Z,101470.97
2022-11-12T20:02:36.257Z,101467.47
2022-11-12T20:05:21.557Z,101475.28
2022-11-12T20:08:09.707Z,101473.59
2022-11-12T20:10:55.451Z,101477.13
2022-11-12T20:13:40.426Z,101471.94
2022-11-12T20:16:26.027Z,101468.41
2022-11-12T20:19:11.261Z,101463.94
2022-11-12T20:21:56.431Z,101467.44
2022-11-12T20:24:41.782Z,101459.44
2022-11-12T20:27:26.759Z,101461.94
2022-11-12T20:30:12.594Z,101456.72
2022-11-12T20:32:57.701Z,101457.63
2022-11-12T20:35:42.579Z,101454.91
2022-11-12T20:38:28.167Z,101453.22
2022-11-12T20:41:16.157Z,101453.28
2022-11-12T20:44:02.537Z,101454.94
2022-11-12T20:46:47.736Z,101459.97
2022-11-12T20:49:32.811Z,101452.25
2022-11-12T20:52:18.556Z,101445.94
2022-11-12T20:55:03.841Z,101445.16
2022-11-12T20:57:49.177Z,101437.25
2022-11-12T21:00:34.104Z,101443.44
2022-11-12T21:03:19.201Z,101435.63
2022-11-12T21:06:06.548Z,101429.63
2022-11-12T21:08:52.121Z,101433.84
2022-11-12T21:11:36.994Z,101421.69
2022-11-12T21:14:21.902Z,101419.13
2022-11-12T21:17:07.135Z,101418.19
2022-11-12T21:19:53.362Z,101415.66
2022-11-12T21:22:38.239Z,101407.66
2022-11-12T21:25:23.699Z,101412.09
2022-11-12T21:28:08.557Z,101413.06
2022-11-12T21:30:53.520Z,101413.72
2022-11-12T21:33:38.704Z,101409.34
2022-11-12T21:36:26.115Z,101420.72
2022-11-12T21:39:11.980Z,101420.72
2022-11-12T21:41:57.048Z,101407.66
2022-11-12T21:44:42.167Z,101414.59
2022-11-12T21:47:27.291Z,101411.84
2022-11-12T21:50:12.374Z,101400.47
2022-11-12T21:52:57.663Z,101398.75
2022-11-12T21:55:42.947Z,101389.97
2022-11-12T21:58:29.585Z,101392.63
2022-11-12T22:01:21.117Z,101384.69
2022-11-12T22:04:07.850Z,101380.44
2022-11-12T22:06:53.108Z,101384.66
2022-11-12T22:09:38.043Z,101389.00
2022-11-12T22:12:22.949Z,101389.91
2022-11-12T22:15:08.277Z,101383.78
2022-11-12T22:17:53.228Z,101383.78
2022-11-12T22:20:38.238Z,101386.38
2022-11-12T22:23:23.229Z,101380.31
2022-11-12T22:26:11.659Z,101370.75
2022-11-12T22:28:58.636Z,101365.53
2022-11-12T22:31:43.467Z,101362.94
2022-11-12T22:34:28.337Z,101364.56
2022-11-12T22:37:13.207Z,101353.28
2022-11-12T22:39:58.159Z,101347.22
2022-11-12T22:42:43.098Z,101348.09
2022-11-12T22:45:28.155Z,101342.88
2022-11-12T22:48:13.059Z,101353.28
2022-11-12T22:51:00.027Z,101358.47
2022-11-12T22:53:45.248Z,101348.91
2022-11-12T22:56:33.239Z,101348.03
2022-11-12T22:59:18.065Z,101346.22
